Time;durP1;ratioP1;P1;durP2;ratioP2;P2;SDS_P1;SDS_P2;PMS_P1;PMS_P2;Temp;Humidity;BMP_temperature;BMP_pressure;BME280_temperature;BME280_humidity;BME280_pressure;Samples;Min_cycle;Max_cycle;Signal;HPM_P1;HPM_P2
2022/05/12 00:00:13;;;;;;;1.77;1.67;;;22.40;63.60;;;;;;5040034;28;20083;-80
2022/05/12 00:02:38;;;;;;;2.75;2.03;;;22.40;63.70;;;;;;5045062;28;20075;-77
2022/05/12 00:05:05;;;;;;;2.35;1.60;;;22.40;63.70;;;;;;5036069;28;20026;-78
2022/05/12 00:07:31;;;;;;;5.97;2.35;;;22.30;63.90;;;;;;5046528;28;20025;-76
2022/05/12 00:09:57;;;;;;;4.57;1.70;;;22.30;64.10;;;;;;5049981;28;20066;-76
2022/05/12 00:12:23;;;;;;;4.75;1.40;;;22.30;64.10;;;;;;5042810;28;20037;-78
2022/05/12 00:14:49;;;;;;;2.35;1.98;;;22.30;64.20;;;;;;5035313;28;20045;-76
2022/05/12 00:17:15;;;;;;;7.65;1.77;;;22.20;64.60;;;;;;5040422;28;20041;-77
2022/05/12 00:19:40;;;;;;;2.35;2.13;;;22.20;64.40;;;;;;5042754;28;20383;-78
2022/05/12 00:22:06;;;;;;;2.40;1.98;;;22.10;64.60;;;;;;5043175;28;20119;-77
2022/05/12 00:24:31;;;;;;;3.47;2.38;;;22.10;64.70;;;;;;5074749;28;20037;-77
2022/05/12 00:26:57;;;;;;;4.80;1.48;;;22.00;64.60;;;;;;5046518;28;20048;-77
2022/05/12 00:29:23;;;;;;;1.90;1.70;;;21.90;64.60;;;;;;5039102;28;20120;-77
2022/05/12 00:31:49;;;;;;;5.00;1.63;;;21.90;64.70;;;;;;5044338;28;20036;-78
2022/05/12 00:34:17;;;;;;;2.75;1.58;;;21.90;63.90;;;;;;5051749;28;20725;-77
2022/05/12 00:36:44;;;;;;;4.93;1.80;;;21.80;63.80;;;;;;5043807;28;20028;-79
2022/05/12 00:39:09;;;;;;;2.35;1.90;;;21.80;63.10;;;;;;5039201;28;20037;-77
2022/05/12 00:41:36;;;;;;;2.60;1.98;;;21.80;63.00;;;;;;5046591;28;20047;-83
2022/05/12 00:44:05;;;;;;;2.10;1.20;;;21.80;62.80;;;;;;5045378;28;20029;-76
2022/05/12 00:46:37;;;;;;;2.00;1.40;;;21.90;62.70;;;;;;5041379;28;20033;-79
2022/05/12 00:49:13;;;;;;;3.67;1.40;;;21.90;62.70;;;;;;5049367;28;20032;-77
2022/05/12 00:51:56;;;;;;;1.75;1.25;;;21.90;62.60;;;;;;5035744;28;20033;-79
2022/05/12 00:54:30;;;;;;;2.35;1.27;;;22.00;62.50;;;;;;5040179;28;20042;-76
2022/05/12 00:56:57;;;;;;;3.85;1.08;;;21.90;62.60;;;;;;5043666;28;20033;-76
2022/05/12 00:59:28;;;;;;;2.25;1.30;;;22.00;62.60;;;;;;5039079;28;20103;-76
2022/05/12 01:01:55;;;;;;;2.67;1.15;;;22.00;62.70;;;;;;5042663;28;20035;-77
2022/05/12 01:04:22;;;;;;;8.00;1.30;;;21.90;62.30;;;;;;5044052;28;20386;-76
2022/05/12 01:06:49;;;;;;;4.68;1.20;;;21.90;62.30;;;;;;5045668;28;20033;-80
2022/05/12 01:09:15;;;;;;;2.10;1.35;;;21.90;62.50;;;;;;5047591;28;20056;-80
2022/05/12 01:11:41;;;;;;;2.35;1.48;;;21.90;62.50;;;;;;5042476;28;20052;-76
2022/05/12 01:14:08;;;;;;;2.55;1.33;;;21.90;62.30;;;;;;5045535;28;20032;-76
2022/05/12 01:16:46;;;;;;;3.20;1.40;;;21.90;63.00;;;;;;5047097;28;20025;-77
2022/05/12 01:19:16;;;;;;;3.13;1.20;;;21.90;62.60;;;;;;5046524;28;20059;-77
2022/05/12 01:21:43;;;;;;;5.22;1.80;;;21.80;62.40;;;;;;5041481;28;20041;-76
2022/05/12 01:24:09;;;;;;;1.52;0.98;;;21.80;62.80;;;;;;5045972;28;20036;-79
2022/05/12 01:26:34;;;;;;;3.20;1.35;;;21.80;62.70;;;;;;5036133;28;20026;-82
2022/05/12 01:29:00;;;;;;;2.95;1.08;;;21.70;62.80;;;;;;5042486;28;20040;-78
2022/05/12 01:31:26;;;;;;;3.00;1.42;;;21.70;62.60;;;;;;5045771;28;20035;-80
2022/05/12 01:33:52;;;;;;;2.42;1.33;;;21.70;62.20;;;;;;5047220;28;20180;-80
2022/05/12 01:36:19;;;;;;;2.67;1.25;;;21.70;62.30;;;;;;5045397;28;20033;-78
2022/05/12 01:38:46;;;;;;;4.78;1.05;;;21.60;62.20;;;;;;5044467;28;20763;-78
2022/05/12 01:41:12;;;;;;;1.80;1.10;;;21.60;62.10;;;;;;5037994;28;20018;-79
2022/05/12 01:43:38;;;;;;;3.92;1.38;;;21.50;62.10;;;;;;5041943;28;20040;-78
2022/05/12 01:46:03;;;;;;;1.45;1.00;;;21.50;62.10;;;;;;5041823;28;20026;-78
2022/05/12 01:48:29;;;;;;;1.75;1.00;;;21.50;61.80;;;;;;5068496;28;20017;-80
2022/05/12 01:50:55;;;;;;;3.30;1.17;;;21.50;62.00;;;;;;5047268;28;20115;-81
2022/05/12 01:53:21;;;;;;;6.22;1.30;;;21.50;61.60;;;;;;5048123;28;20403;-81
2022/05/12 01:55:49;;;;;;;1.42;1.02;;;21.50;61.70;;;;;;5041480;28;20040;-77
2022/05/12 01:58:20;;;;;;;3.97;1.05;;;21.50;61.50;;;;;;5070623;28;20032;-79
2022/05/12 02:00:46;;;;;;;2.03;0.77;;;21.50;61.50;;;;;;5035490;28;20502;-77
2022/05/12 02:03:12;;;;;;;5.75;0.90;;;21.50;61.10;;;;;;5046357;28;20032;-81
2022/05/12 02:05:38;;;;;;;1.52;0.90;;;21.50;60.90;;;;;;5038879;28;20026;-77
2022/05/12 02:08:07;;;;;;;2.45;1.15;;;21.50;61.10;;;;;;5042094;28;20029;-78
2022/05/12 02:10:37;;;;;;;9.45;1.00;;;21.50;60.80;;;;;;5040039;28;20025;-77
2022/05/12 02:13:07;;;;;;;10.95;1.20;;;21.50;60.70;;;;;;5040035;28;20463;-78
2022/05/12 02:15:33;;;;;;;1.98;1.00;;;21.50;60.50;;;;;;5042694;28;20033;-77
2022/05/12 02:17:58;;;;;;;4.55;1.23;;;21.50;60.30;;;;;;5046246;28;20483;-77
2022/05/12 02:20:24;;;;;;;1.52;0.90;;;21.40;60.60;;;;;;5076151;28;20115;-78
2022/05/12 02:22:50;;;;;;;2.28;0.90;;;21.40;60.30;;;;;;5044806;28;20041;-80
2022/05/12 02:25:17;;;;;;;1.90;0.93;;;21.40;60.00;;;;;;5035245;28;20498;-78
2022/05/12 02:27:45;;;;;;;3.00;1.02;;;21.40;60.30;;;;;;5029847;28;20037;-77
2022/05/12 02:30:13;;;;;;;5.93;0.90;;;21.40;60.30;;;;;;5032645;28;20029;-81
2022/05/12 02:32:39;;;;;;;2.90;1.00;;;21.40;60.40;;;;;;5029685;28;20079;-77
2022/05/12 02:35:05;;;;;;;1.80;1.02;;;21.40;60.70;;;;;;5029067;28;20064;-77
2022/05/12 02:37:30;;;;;;;5.20;1.00;;;21.40;60.40;;;;;;5030628;28;20040;-81
2022/05/12 02:39:56;;;;;;;1.88;0.80;;;21.40;59.90;;;;;;5036926;28;20024;-80
2022/05/12 02:42:22;;;;;;;3.85;0.80;;;21.40;60.40;;;;;;5048949;28;20037;-78
2022/05/12 02:44:47;;;;;;;1.25;0.85;;;21.40;60.10;;;;;;5043833;28;20025;-78
2022/05/12 02:47:14;;;;;;;1.45;0.70;;;21.40;59.80;;;;;;5032832;28;20151;-78
2022/05/12 02:49:40;;;;;;;3.33;0.75;;;21.40;60.20;;;;;;5029900;28;20573;-78
2022/05/12 02:52:07;;;;;;;2.33;1.30;;;21.30;61.70;;;;;;5029423;28;20186;-77
2022/05/12 02:54:34;;;;;;;2.60;1.58;;;21.30;62.60;;;;;;5033015;28;20036;-79
2022/05/12 02:56:59;;;;;;;3.78;1.90;;;21.10;66.40;;;;;;5030773;28;20181;-80
2022/05/12 02:59:25;;;;;;;3.20;2.33;;;20.90;70.50;;;;;;5033813;28;20530;-78
2022/05/12 03:01:50;;;;;;;4.60;2.05;;;20.60;72.30;;;;;;5038640;28;20033;-76
2022/05/12 03:04:16;;;;;;;4.38;2.17;;;20.40;73.40;;;;;;5043881;28;20649;-76
2022/05/12 03:06:42;;;;;;;6.60;2.58;;;20.20;74.70;;;;;;5027581;28;20104;-80
2022/05/12 03:09:09;;;;;;;5.28;2.13;;;20.00;75.50;;;;;;5032266;28;20044;-76
2022/05/12 03:11:35;;;;;;;4.38;1.92;;;19.80;76.50;;;;;;5038667;28;20029;-76
2022/05/12 03:14:00;;;;;;;4.18;2.13;;;19.70;76.90;;;;;;5043857;28;20045;-82
2022/05/12 03:16:26;;;;;;;4.25;2.10;;;19.50;78.00;;;;;;5029714;28;20044;-80
2022/05/12 03:18:53;;;;;;;7.32;2.60;;;19.30;78.50;;;;;;5035066;28;20122;-80
2022/05/12 03:21:20;;;;;;;4.85;2.00;;;19.20;79.40;;;;;;5037333;28;20021;-82
2022/05/12 03:23:46;;;;;;;11.05;2.40;;;19.00;79.70;;;;;;5042989;28;20112;-79
2022/05/12 03:26:12;;;;;;;5.60;2.00;;;18.90;80.10;;;;;;5044812;28;20112;-83
2022/05/12 03:28:39;;;;;;;6.95;2.08;;;18.80;80.20;;;;;;5043739;28;20398;-78
2022/05/12 03:31:05;;;;;;;3.90;2.13;;;18.80;80.60;;;;;;5030713;28;20065;-80
2022/05/12 03:33:31;;;;;;;4.72;2.17;;;18.80;80.80;;;;;;5039125;28;20521;-80
2022/05/12 03:35:58;;;;;;;4.60;2.58;;;18.80;81.10;;;;;;5042564;28;22027;-79
2022/05/12 03:38:23;;;;;;;12.68;2.63;;;18.70;81.20;;;;;;5046182;28;20029;-78
2022/05/12 03:40:49;;;;;;;7.07;2.38;;;18.60;81.60;;;;;;5044640;28;20408;-78
2022/05/12 03:45:59;;;;;;;5.85;2.08;;;18.40;81.80;;;;;;5043501;28;20094;-79
2022/05/12 03:48:25;;;;;;;6.93;2.13;;;18.50;81.80;;;;;;5045955;28;20033;-79
2022/05/12 03:50:50;;;;;;;7.28;2.25;;;18.50;81.70;;;;;;5049687;28;20119;-80
2022/05/12 03:53:16;;;;;;;8.77;2.58;;;18.40;82.40;;;;;;5037138;28;20060;-79
2022/05/12 03:55:41;;;;;;;7.43;1.83;;;18.30;82.60;;;;;;5044437;28;20405;-79
2022/05/12 03:58:07;;;;;;;6.70;2.13;;;18.40;82.90;;;;;;5050680;28;20037;-78
2022/05/12 04:00:34;;;;;;;5.18;2.30;;;18.40;82.80;;;;;;5043023;28;20405;-80
2022/05/12 04:03:00;;;;;;;7.35;1.88;;;18.40;83.00;;;;;;5033834;28;20468;-82
2022/05/12 04:05:27;;;;;;;3.58;2.13;;;18.40;83.40;;;;;;5078234;28;20036;-79
2022/05/12 04:07:53;;;;;;;5.65;2.72;;;18.40;83.70;;;;;;5043332;28;20101;-78
2022/05/12 04:10:21;;;;;;;6.95;3.33;;;18.40;83.80;;;;;;5043298;28;20045;-79
2022/05/12 04:12:47;;;;;;;5.30;1.95;;;18.40;84.00;;;;;;5048232;28;20040;-77
2022/05/12 04:15:15;;;;;;;4.47;2.35;;;18.40;84.30;;;;;;5071071;28;20085;-77
2022/05/12 04:17:41;;;;;;;5.88;1.90;;;18.40;84.50;;;;;;5033116;28;20501;-80
2022/05/12 04:20:12;;;;;;;6.30;1.50;;;18.40;84.60;;;;;;5044313;28;20032;-77
2022/05/12 04:22:40;;;;;;;9.05;2.05;;;18.50;84.60;;;;;;5042519;28;20033;-79
2022/05/12 04:25:06;;;;;;;7.38;2.22;;;18.50;84.60;;;;;;5038578;28;20090;-83
2022/05/12 04:27:35;;;;;;;7.90;3.05;;;18.60;84.70;;;;;;5045443;28;20025;-79
2022/05/12 04:30:00;;;;;;;3.72;1.88;;;18.60;84.90;;;;;;5049853;28;20024;-79
2022/05/12 04:32:26;;;;;;;9.13;2.83;;;18.60;84.90;;;;;;5041917;28;20044;-79
2022/05/12 04:35:11;;;;;;;8.13;1.77;;;18.70;84.60;;;;;;5036728;28;20470;-78
2022/05/12 04:37:37;;;;;;;5.05;1.80;;;18.80;84.60;;;;;;5036642;28;20033;-78
2022/05/12 04:40:07;;;;;;;5.32;2.28;;;18.80;85.20;;;;;;5031406;28;20028;-78
2022/05/12 04:42:33;;;;;;;3.97;1.67;;;18.80;85.30;;;;;;5042662;28;20128;-78
2022/05/12 04:44:59;;;;;;;5.30;1.55;;;18.80;85.20;;;;;;5047695;28;20463;-77
2022/05/12 04:47:24;;;;;;;4.13;1.40;;;18.80;84.90;;;;;;5044367;28;20025;-82
2022/05/12 04:49:50;;;;;;;4.43;1.27;;;18.80;84.90;;;;;;5038957;28;20060;-78
2022/05/12 04:52:16;;;;;;;4.80;1.70;;;18.70;84.50;;;;;;5041866;28;20572;-77
2022/05/12 04:54:42;;;;;;;4.55;1.45;;;18.70;84.30;;;;;;5042923;28;20059;-81
2022/05/12 04:57:08;;;;;;;3.65;0.98;;;18.70;84.60;;;;;;5043183;28;20613;-77
2022/05/12 04:59:33;;;;;;;3.03;1.05;;;18.70;83.10;;;;;;5040004;28;20130;-77
2022/05/12 05:01:59;;;;;;;2.90;1.10;;;18.60;81.90;;;;;;5036956;28;20305;-77
2022/05/12 05:04:24;;;;;;;4.40;1.05;;;18.60;81.70;;;;;;5044119;28;20558;-79
2022/05/12 05:06:50;;;;;;;3.55;1.10;;;18.70;80.30;;;;;;5037847;28;20039;-80
2022/05/12 05:09:15;;;;;;;1.52;0.70;;;18.70;79.80;;;;;;5041671;28;20026;-78
2022/05/12 05:11:41;;;;;;;4.60;0.80;;;18.80;79.50;;;;;;5043105;28;20132;-78
2022/05/12 05:14:06;;;;;;;4.80;0.73;;;18.70;79.50;;;;;;5040545;28;20064;-78
2022/05/12 05:16:32;;;;;;;1.98;0.70;;;18.80;79.70;;;;;;5045340;28;20497;-79
2022/05/12 05:18:57;;;;;;;1.85;0.50;;;18.80;79.10;;;;;;5038536;28;20021;-78
2022/05/12 05:21:23;;;;;;;5.30;0.60;;;18.80;79.00;;;;;;5032207;28;20047;-80
2022/05/12 05:23:48;;;;;;;2.05;0.55;;;18.70;78.60;;;;;;5038649;28;20121;-81
2022/05/12 05:26:14;;;;;;;2.72;0.77;;;18.70;78.60;;;;;;5040082;28;20111;-77
2022/05/12 05:28:39;;;;;;;2.40;0.63;;;18.70;78.80;;;;;;5043749;28;20809;-80
2022/05/12 05:31:06;;;;;;;3.63;0.60;;;18.60;79.30;;;;;;5042930;28;20036;-77
2022/05/12 05:33:32;;;;;;;10.70;0.50;;;18.50;79.10;;;;;;5044019;28;20083;-76
2022/05/12 05:35:58;;;;;;;9.13;1.13;;;18.40;79.70;;;;;;5036643;28;20531;-81
2022/05/12 05:38:24;;;;;;;2.05;0.50;;;18.40;79.90;;;;;;5069915;28;20056;-78
2022/05/12 05:40:50;;;;;;;3.13;0.50;;;18.40;79.90;;;;;;5036552;28;20036;-78
2022/05/12 05:43:16;;;;;;;4.80;0.93;;;18.40;80.10;;;;;;5049712;28;20033;-80
2022/05/12 05:45:41;;;;;;;2.63;0.73;;;18.40;79.90;;;;;;5049373;28;20033;-80
2022/05/12 05:48:07;;;;;;;3.40;0.73;;;18.30;79.60;;;;;;5047452;28;20033;-79
2022/05/12 05:53:23;;;;;;;5.43;0.70;;;18.30;80.10;;;;;;5046492;28;20083;-78
2022/05/12 05:53:25;;;;;;;2.25;0.63;;;18.30;79.70;;;;;;5047139;28;20125;-79
2022/05/12 05:55:53;;;;;;;2.42;0.88;;;18.40;78.90;;;;;;5046741;28;20029;-77
2022/05/12 05:58:19;;;;;;;2.97;0.50;;;18.30;76.70;;;;;;5030356;28;20475;-79
2022/05/12 06:00:45;;;;;;;4.00;0.70;;;18.30;76.30;;;;;;5034340;28;20111;-78
2022/05/12 06:03:11;;;;;;;6.13;1.55;;;18.30;76.10;;;;;;5048092;28;20489;-79
2022/05/12 06:05:37;;;;;;;2.60;0.65;;;18.20;77.00;;;;;;5047792;28;20240;-79
2022/05/12 06:08:03;;;;;;;2.65;0.90;;;18.30;75.80;;;;;;5043462;28;20024;-77
2022/05/12 06:10:29;;;;;;;2.70;0.60;;;18.30;75.30;;;;;;5047806;28;20029;-78
2022/05/12 06:12:56;;;;;;;1.95;0.40;;;18.20;75.40;;;;;;5037178;28;20051;-83
2022/05/12 06:15:23;;;;;;;1.63;0.75;;;18.20;76.10;;;;;;5047071;28;20124;-79
2022/05/12 06:17:49;;;;;;;2.95;0.70;;;18.20;74.80;;;;;;5048151;28;20028;-81
2022/05/12 06:20:14;;;;;;;2.22;0.60;;;18.20;75.40;;;;;;5048143;28;20044;-79
2022/05/12 06:22:40;;;;;;;1.13;0.43;;;18.20;75.50;;;;;;5049557;28;20041;-78
2022/05/12 06:25:09;;;;;;;1.42;0.40;;;18.30;74.20;;;;;;5049775;28;20095;-79
2022/05/12 06:27:34;;;;;;;0.68;0.30;;;18.20;74.10;;;;;;5047782;28;20078;-79
2022/05/12 06:30:00;;;;;;;1.98;0.40;;;18.30;73.70;;;;;;5041512;28;20112;-80
2022/05/12 06:32:30;;;;;;;1.95;0.50;;;18.30;72.90;;;;;;5045554;28;20467;-79
2022/05/12 06:34:55;;;;;;;3.42;0.70;;;18.30;71.90;;;;;;5040342;28;20394;-79
2022/05/12 06:37:21;;;;;;;4.10;0.95;;;18.20;74.00;;;;;;5046779;28;20028;-81
2022/05/12 06:39:46;;;;;;;7.90;0.95;;;18.20;76.60;;;;;;5047339;28;20024;-80
2022/05/12 06:42:12;;;;;;;3.17;0.95;;;18.20;78.00;;;;;;5045805;28;20036;-81
2022/05/12 06:44:39;;;;;;;2.90;0.68;;;18.20;78.50;;;;;;5048058;28;20024;-78
2022/05/12 06:47:09;;;;;;;1.17;0.60;;;18.10;78.30;;;;;;5046007;28;20826;-82
2022/05/12 06:49:35;;;;;;;2.45;0.80;;;18.10;78.70;;;;;;5031304;28;20112;-78
2022/05/12 06:52:03;;;;;;;3.13;0.77;;;18.00;78.70;;;;;;5042146;28;20132;-81
2022/05/12 06:54:29;;;;;;;4.40;0.75;;;17.90;78.00;;;;;;5049078;28;20479;-79
2022/05/12 06:56:54;;;;;;;14.20;0.55;;;17.90;77.90;;;;;;5046817;28;20053;-78
2022/05/12 06:59:20;;;;;;;1.95;0.57;;;17.90;77.40;;;;;;5046353;28;20032;-80
2022/05/12 07:01:45;;;;;;;2.85;0.88;;;17.80;76.00;;;;;;5049115;28;20045;-78
2022/05/12 07:04:11;;;;;;;4.13;0.65;;;17.70;75.00;;;;;;5047438;28;20467;-82
2022/05/12 07:06:37;;;;;;;2.35;0.70;;;17.70;74.70;;;;;;5047870;28;20078;-78
2022/05/12 07:09:02;;;;;;;1.25;0.30;;;17.80;73.70;;;;;;5045344;28;20040;-78
2022/05/12 07:11:28;;;;;;;1.02;0.50;;;17.80;72.20;;;;;;5043800;28;20037;-81
2022/05/12 07:13:53;;;;;;;1.52;0.40;;;17.70;72.80;;;;;;5036342;28;20029;-79
2022/05/12 07:16:20;;;;;;;1.08;0.38;;;17.80;72.00;;;;;;5047827;28;20052;-84
2022/05/12 07:18:46;;;;;;;1.65;0.30;;;17.90;70.90;;;;;;5047265;28;20029;-81
2022/05/12 07:26:40;;;;;;;1.27;0.40;;;17.90;70.40;;;;;;5033476;28;20091;-83
2022/05/12 07:29:17;;;;;;;5.35;0.30;;;18.00;70.90;;;;;;5061544;28;20037;-84
2022/05/12 07:31:43;;;;;;;1.13;0.40;;;18.10;70.20;;;;;;5060608;28;20095;-83
2022/05/12 07:34:09;;;;;;;4.28;1.23;;;18.20;70.60;;;;;;5032542;28;20041;-83
2022/05/12 07:36:41;;;;;;;2.88;0.75;;;18.30;68.90;;;;;;5038586;28;20044;-81
2022/05/12 07:39:07;;;;;;;30.88;2.78;;;18.40;68.50;;;;;;5027055;28;20116;-82
2022/05/12 07:41:33;;;;;;;25.15;2.13;;;18.40;69.30;;;;;;5029846;28;20544;-81
2022/05/12 07:43:59;;;;;;;3.28;0.95;;;18.40;69.10;;;;;;5028479;28;20033;-82
2022/05/12 07:46:28;;;;;;;1.05;0.30;;;18.40;68.50;;;;;;5043683;28;20052;-80
2022/05/12 07:48:54;;;;;;;2.90;0.40;;;18.50;68.70;;;;;;5045406;28;20474;-83
2022/05/12 07:51:20;;;;;;;0.65;0.30;;;18.60;68.50;;;;;;5038487;28;20315;-79
2022/05/12 07:53:47;;;;;;;1.85;0.40;;;18.50;68.70;;;;;;5035933;28;20056;-81
2022/05/12 07:56:18;;;;;;;1.30;0.30;;;18.50;69.60;;;;;;5045002;28;20025;-81
2022/05/12 07:58:44;;;;;;;1.05;0.22;;;18.60;69.60;;;;;;5046722;28;20028;-82
2022/05/12 08:01:11;;;;;;;1.17;0.30;;;18.70;69.20;;;;;;5045886;28;20506;-82
2022/05/12 08:03:38;;;;;;;0.73;0.30;;;18.70;69.00;;;;;;5045932;28;20552;-81
2022/05/12 08:06:03;;;;;;;2.83;0.47;;;18.90;69.30;;;;;;5039501;28;20374;-84
2022/05/12 08:08:29;;;;;;;1.63;0.30;;;19.00;67.80;;;;;;5046252;28;20033;-81
2022/05/12 08:10:54;;;;;;;2.08;0.40;;;19.00;67.60;;;;;;5046973;28;20040;-81
2022/05/12 08:13:21;;;;;;;1.42;0.40;;;19.10;67.20;;;;;;5048747;28;20033;-82
2022/05/12 08:15:49;;;;;;;1.40;0.40;;;19.00;67.20;;;;;;5041502;28;20040;-81
2022/05/12 08:18:19;;;;;;;1.55;0.38;;;19.10;66.90;;;;;;5045887;28;20028;-80
2022/05/12 08:20:45;;;;;;;0.90;0.28;;;19.10;67.20;;;;;;5045416;28;20056;-79
2022/05/12 08:23:11;;;;;;;3.28;0.85;;;19.20;67.80;;;;;;5040890;28;20498;-80
2022/05/12 08:25:37;;;;;;;4.70;0.30;;;19.30;66.20;;;;;;5045436;28;20087;-82
2022/05/12 08:28:03;;;;;;;1.48;0.77;;;19.30;66.40;;;;;;5045571;28;20028;-81
2022/05/12 08:30:30;;;;;;;1.00;0.30;;;19.30;65.20;;;;;;5049636;28;20145;-79
2022/05/12 08:32:56;;;;;;;1.35;0.43;;;19.30;66.20;;;;;;5050115;28;20036;-80
2022/05/12 08:35:22;;;;;;;2.20;0.95;;;19.40;66.20;;;;;;5035965;28;20025;-83
2022/05/12 08:37:47;;;;;;;3.17;0.95;;;19.50;66.10;;;;;;5044182;28;20121;-79
2022/05/12 08:40:30;;;;;;;1.10;0.30;;;19.40;66.80;;;;;;5041812;28;20037;-79
2022/05/12 08:43:01;;;;;;;1.10;0.40;;;19.50;66.20;;;;;;5039426;28;20037;-79
2022/05/12 08:45:27;;;;;;;3.10;0.50;;;19.40;66.10;;;;;;5049995;28;20033;-79
2022/05/12 08:47:55;;;;;;;0.50;0.30;;;19.50;65.90;;;;;;5047930;28;20124;-79
2022/05/12 08:50:26;;;;;;;1.30;0.28;;;19.60;66.80;;;;;;5049792;28;20192;-79
2022/05/12 08:52:55;;;;;;;0.30;0.25;;;19.80;64.80;;;;;;5048287;28;20025;-80
2022/05/12 08:55:26;;;;;;;3.33;0.65;;;19.80;64.10;;;;;;5031846;28;20514;-80
2022/05/12 08:58:03;;;;;;;1.02;0.30;;;19.80;64.10;;;;;;5040672;28;20060;-79
2022/05/12 09:00:38;;;;;;;2.65;0.60;;;19.90;64.90;;;;;;5035252;28;20029;-81
2022/05/12 09:03:18;;;;;;;6.32;0.30;;;19.80;64.30;;;;;;5065562;28;20037;-80
2022/05/12 09:05:55;;;;;;;1.35;0.45;;;20.00;63.50;;;;;;5041051;28;20103;-79
2022/05/12 09:08:40;;;;;;;5.93;0.30;;;20.10;63.50;;;;;;5033943;28;20033;-79
2022/05/12 09:11:15;;;;;;;1.52;0.30;;;20.20;64.20;;;;;;5071886;28;20086;-80
2022/05/12 09:13:46;;;;;;;1.10;0.30;;;20.40;62.30;;;;;;5042357;28;20033;-79
2022/05/12 09:16:29;;;;;;;0.47;0.38;;;20.50;62.10;;;;;;5029288;28;20035;-81
2022/05/12 09:18:55;;;;;;;0.88;0.45;;;20.60;62.10;;;;;;5074083;28;20021;-80
2022/05/12 09:21:28;;;;;;;3.63;0.38;;;20.70;63.00;;;;;;5030586;28;20029;-78
2022/05/12 09:23:55;;;;;;;0.38;0.30;;;20.90;61.20;;;;;;5047077;28;20071;-81
2022/05/12 09:26:30;;;;;;;0.98;0.40;;;20.90;61.50;;;;;;5049002;28;20557;-81
2022/05/12 09:29:22;;;;;;;1.08;0.45;;;21.00;61.70;;;;;;5051799;28;20035;-79
2022/05/12 09:31:56;;;;;;;0.60;0.50;;;21.10;59.40;;;;;;5043590;28;20029;-79
2022/05/12 09:34:23;;;;;;;1.10;0.28;;;21.20;59.50;;;;;;5054407;28;20028;-79
2022/05/12 09:36:49;;;;;;;1.65;0.30;;;21.20;59.20;;;;;;5050662;28;20441;-80
2022/05/12 09:39:31;;;;;;;1.27;0.35;;;21.30;60.20;;;;;;5056877;28;20024;-81
2022/05/12 09:41:57;;;;;;;1.02;0.40;;;21.40;60.90;;;;;;5034581;28;20123;-83
2022/05/12 09:44:29;;;;;;;2.67;0.50;;;21.50;61.20;;;;;;5047040;28;20048;-77
2022/05/12 09:47:02;;;;;;;1.63;0.45;;;21.50;59.90;;;;;;5042747;28;20325;-77
2022/05/12 09:49:34;;;;;;;0.50;0.30;;;21.50;59.10;;;;;;5046273;28;20124;-77
2022/05/12 09:52:21;;;;;;;1.40;0.50;;;21.50;59.00;;;;;;5048226;28;20043;-76
2022/05/12 09:54:47;;;;;;;2.17;0.50;;;21.50;59.90;;;;;;5045656;28;20037;-78
2022/05/12 09:57:25;;;;;;;2.10;0.70;;;21.70;60.40;;;;;;5048611;28;20104;-76
2022/05/12 09:59:56;;;;;;;2.55;0.45;;;22.00;58.50;;;;;;5059040;28;20033;-76
2022/05/12 10:08:22;;;;;;;1.00;0.30;;;22.20;57.30;;;;;;5049461;28;20089;-78
2022/05/12 10:10:53;;;;;;;0.60;0.30;;;22.30;57.20;;;;;;5046461;28;20029;-78
2022/05/12 10:13:35;;;;;;;1.38;0.40;;;22.30;58.10;;;;;;5049475;28;20068;-77
2022/05/12 10:16:01;;;;;;;3.10;1.17;;;22.40;57.90;;;;;;5048794;28;20057;-76
2022/05/12 10:18:40;;;;;;;1.20;0.40;;;22.40;60.20;;;;;;5049795;28;20079;-76
2022/05/12 10:21:21;;;;;;;1.23;0.50;;;22.40;59.40;;;;;;5048104;28;20402;-76
2022/05/12 10:24:06;;;;;;;1.60;0.40;;;22.50;56.70;;;;;;5049423;28;20025;-76
2022/05/12 10:26:38;;;;;;;3.80;0.63;;;22.70;56.50;;;;;;5044244;28;20068;-77
2022/05/12 10:29:34;;;;;;;1.70;0.40;;;22.90;57.50;;;;;;5031291;28;20046;-79
2022/05/12 10:32:09;;;;;;;0.20;0.20;;;23.10;56.60;;;;;;5043752;28;20032;-78
2022/05/12 10:34:38;;;;;;;3.92;0.47;;;23.30;57.60;;;;;;5047856;28;20459;-76
2022/05/12 10:37:25;;;;;;;1.17;0.50;;;23.40;55.60;;;;;;5046601;28;20025;-78
2022/05/12 10:40:05;;;;;;;1.70;0.65;;;23.60;54.50;;;;;;5033146;28;20059;-73
2022/05/12 10:42:53;;;;;;;1.33;0.30;;;23.90;52.70;;;;;;5047977;28;20056;-73
2022/05/12 10:45:56;;;;;;;1.52;0.30;;;24.00;51.20;;;;;;5040485;28;20033;-75
2022/05/12 10:48:45;;;;;;;42.65;3.45;;;24.20;51.20;;;;;;5031339;28;20144;-75
2022/05/12 10:51:32;;;;;;;4.43;0.32;;;24.40;51.10;;;;;;5043530;28;20098;-77
2022/05/12 10:54:25;;;;;;;6.10;0.52;;;24.40;50.70;;;;;;5029009;28;20040;-76
2022/05/12 10:57:21;;;;;;;1.20;0.20;;;24.50;51.10;;;;;;5028850;28;20411;-77
2022/05/12 11:00:05;;;;;;;1.77;0.25;;;24.60;51.80;;;;;;5041419;28;20030;-77
2022/05/12 11:02:44;;;;;;;0.63;0.20;;;24.70;49.80;;;;;;5029187;28;20041;-75
2022/05/12 11:05:10;;;;;;;6.57;0.30;;;24.50;48.80;;;;;;5046979;28;20040;-76
2022/05/12 11:07:49;;;;;;;1.63;0.20;;;24.20;48.30;;;;;;5047365;28;20033;-76
2022/05/12 11:10:27;;;;;;;2.67;0.30;;;24.10;50.80;;;;;;5038352;28;20034;-75
2022/05/12 11:13:00;;;;;;;2.05;0.40;;;24.00;48.80;;;;;;5031974;28;20037;-75
2022/05/12 11:15:33;;;;;;;1.40;0.47;;;24.00;49.50;;;;;;5047501;28;20041;-75
2022/05/12 11:18:06;;;;;;;0.30;0.20;;;23.90;49.70;;;;;;5042816;28;20036;-75
2022/05/12 11:20:39;;;;;;;0.85;0.30;;;23.90;47.00;;;;;;5036001;28;20033;-75
2022/05/12 11:23:19;;;;;;;0.28;0.10;;;24.00;45.20;;;;;;5033753;28;20056;-74
2022/05/12 11:26:08;;;;;;;0.40;0.30;;;23.90;47.10;;;;;;5047368;28;20033;-75
2022/05/12 11:31:46;;;;;;;2.45;0.22;;;23.90;45.30;;;;;;5047002;28;20035;-77
2022/05/12 11:34:16;;;;;;;0.52;0.20;;;23.90;45.90;;;;;;5045972;28;20041;-75
2022/05/12 11:36:45;;;;;;;0.93;0.20;;;24.00;43.60;;;;;;5042346;28;20082;-78
2022/05/12 11:39:31;;;;;;;2.85;0.57;;;24.10;43.40;;;;;;5044991;28;20453;-77
2022/05/12 11:42:13;;;;;;;0.30;0.20;;;24.20;43.30;;;;;;5043974;28;20032;-75
2022/05/12 11:44:57;;;;;;;;;;;24.20;40.80;;;;;;5044100;28;20120;-76
2022/05/12 11:47:54;;;;;;;2.08;0.20;;;24.00;41.10;;;;;;5041047;28;19916;-76
2022/05/12 11:50:35;;;;;;;0.20;0.20;;;24.00;42.30;;;;;;5043243;28;20436;-76
2022/05/12 11:53:25;;;;;;;0.82;0.20;;;24.10;41.40;;;;;;5028251;28;20048;-77
2022/05/12 11:56:11;;;;;;;1.05;0.20;;;24.10;43.10;;;;;;5044306;28;20056;-75
2022/05/12 11:58:47;;;;;;;1.05;0.30;;;24.30;43.10;;;;;;5050799;28;20029;-75
2022/05/12 12:01:19;;;;;;;0.50;0.20;;;24.30;44.90;;;;;;5042712;28;20025;-78
2022/05/12 12:03:50;;;;;;;4.53;0.20;;;24.40;42.60;;;;;;5046489;28;20072;-75
2022/05/12 12:06:34;;;;;;;0.20;0.20;;;24.40;40.80;;;;;;5050638;28;20122;-75
2022/05/12 12:09:25;;;;;;;0.98;0.75;;;24.30;42.60;;;;;;5048775;28;20029;-77
2022/05/12 12:11:51;;;;;;;2.55;0.30;;;24.30;43.70;;;;;;5051196;28;20044;-76
2022/05/12 12:14:51;;;;;;;3.13;0.20;;;24.20;43.00;;;;;;5049843;28;20037;-79
2022/05/12 12:17:25;;;;;;;0.85;0.20;;;24.30;40.30;;;;;;5050566;28;20025;-78
2022/05/12 12:19:55;;;;;;;1.02;0.30;;;24.20;40.10;;;;;;5049763;28;20082;-75
2022/05/12 12:22:46;;;;;;;1.60;0.40;;;24.10;43.20;;;;;;5033246;28;20079;-76
2022/05/12 12:25:32;;;;;;;1.10;0.20;;;24.20;42.30;;;;;;5038733;28;20039;-75
2022/05/12 12:28:10;;;;;;;2.47;0.22;;;24.30;42.60;;;;;;5049289;28;20497;-77
2022/05/12 12:30:48;;;;;;;2.15;0.30;;;24.30;41.80;;;;;;5050698;28;20112;-76
2022/05/12 12:33:38;;;;;;;0.73;0.30;;;24.40;44.00;;;;;;5051041;28;20060;-75
2022/05/12 12:36:36;;;;;;;1.15;0.22;;;24.60;43.20;;;;;;5043112;28;20029;-76
2022/05/12 12:39:04;;;;;;;2.15;0.32;;;24.60;43.30;;;;;;5043835;28;20479;-75
2022/05/12 12:41:29;;;;;;;0.90;0.55;;;24.70;46.20;;;;;;5050897;28;20112;-75
2022/05/12 12:43:59;;;;;;;0.88;0.35;;;24.80;44.20;;;;;;5050738;28;20116;-75
2022/05/12 12:46:26;;;;;;;0.30;0.22;;;24.90;43.60;;;;;;5050185;28;20021;-76
2022/05/12 12:48:57;;;;;;;4.57;0.50;;;24.90;43.30;;;;;;5049563;28;20036;-77
2022/05/12 12:51:33;;;;;;;1.10;0.25;;;24.80;43.40;;;;;;5050372;28;20462;-76
2022/05/12 12:56:43;;;;;;;5.18;0.32;;;24.50;43.20;;;;;;5048068;28;20032;-77
2022/05/12 12:59:16;;;;;;;5.60;0.38;;;24.20;45.50;;;;;;5038941;28;20414;-75
2022/05/12 13:01:59;;;;;;;0.77;0.28;;;24.10;45.20;;;;;;5046740;28;20036;-76
2022/05/12 13:04:31;;;;;;;3.20;0.40;;;24.10;43.80;;;;;;5039791;28;20120;-81
2022/05/12 13:06:59;;;;;;;3.42;0.30;;;24.10;44.60;;;;;;5030095;28;20047;-80
2022/05/12 13:09:32;;;;;;;0.80;0.30;;;24.10;45.80;;;;;;5078523;28;20022;-81
2022/05/12 13:12:15;;;;;;;2.60;0.98;;;24.10;45.30;;;;;;5041019;28;20088;-81
2022/05/12 13:14:42;;;;;;;1.55;0.40;;;24.10;45.00;;;;;;5041798;28;20064;-81
2022/05/12 13:17:17;;;;;;;1.17;0.30;;;24.10;44.80;;;;;;5049279;28;20039;-81
2022/05/12 13:19:44;;;;;;;2.55;0.40;;;24.10;44.50;;;;;;5049543;28;20086;-81
2022/05/12 13:22:19;;;;;;;1.15;0.45;;;24.30;45.40;;;;;;5050528;28;20055;-81